createdAt,value
2023-12-09T00:04:51.330Z,0.80
2023-12-09T00:09:53.987Z,0.76
2023-12-09T00:14:56.663Z,0.74
2023-12-09T00:20:00.632Z,0.83
2023-12-09T00:25:03.651Z,0.77
2023-12-09T00:30:09.637Z,0.89
2023-12-09T00:35:15.203Z,0.85
2023-12-09T00:40:20.683Z,0.78
2023-12-09T00:45:23.540Z,0.74
2023-12-09T00:50:26.280Z,0.23
2023-12-09T00:55:28.906Z,0.66
2023-12-09T01:00:31.807Z,0.31
2023-12-09T01:05:34.497Z,0.80
2023-12-09T01:10:37.165Z,0.96
2023-12-09T01:15:40.227Z,1.01
2023-12-09T01:20:43.102Z,1.11
2023-12-09T01:25:45.943Z,1.02
2023-12-09T01:30:48.702Z,1.06
2023-12-09T01:35:51.343Z,1.01
2023-12-09T01:40:55.690Z,0.88
2023-12-09T01:46:08.954Z,0.97
2023-12-09T01:51:12.787Z,0.91
2023-12-09T01:56:17.990Z,1.03
2023-12-09T02:01:20.794Z,1.04
2023-12-09T02:06:23.545Z,1.09
2023-12-09T02:11:45.267Z,0.89
2023-12-09T02:17:21.714Z,0.93
2023-12-09T02:22:24.683Z,0.97
2023-12-09T02:27:49.167Z,0.97
2023-12-09T02:32:55.604Z,0.95
2023-12-09T02:37:59.933Z,1.04
2023-12-09T02:43:04.381Z,1.12
2023-12-09T02:48:07.722Z,1.10
2023-12-09T02:53:10.539Z,1.10
2023-12-09T02:58:13.859Z,1.15
2023-12-09T03:03:17.027Z,1.24
2023-12-09T03:08:19.884Z,1.26
2023-12-09T03:13:22.525Z,1.28
2023-12-09T03:18:25.384Z,1.29
2023-12-09T03:23:28.225Z,1.32
2023-12-09T03:28:30.889Z,1.41
2023-12-09T03:33:33.708Z,0.97
2023-12-09T03:38:37.222Z,1.29
2023-12-09T03:43:39.953Z,1.26
2023-12-09T03:48:42.710Z,1.10
2023-12-09T03:53:45.974Z,1.21
2023-12-09T03:58:49.059Z,1.36
2023-12-09T04:03:52.410Z,1.23
2023-12-09T04:08:55.658Z,1.18
2023-12-09T04:13:58.538Z,1.34
2023-12-09T04:19:01.694Z,1.27
2023-12-09T04:24:04.912Z,1.49
2023-12-09T04:29:08.218Z,1.52
2023-12-09T04:34:11.084Z,1.54
2023-12-09T04:39:13.873Z,1.40
2023-12-09T04:44:16.534Z,1.38
2023-12-09T04:49:19.690Z,1.50
2023-12-09T04:54:22.634Z,1.70
2023-12-09T04:59:25.612Z,1.78
2023-12-09T05:04:28.874Z,1.48
2023-12-09T05:09:31.905Z,1.51
2023-12-09T05:14:34.893Z,1.61
2023-12-09T05:19:37.717Z,1.59
2023-12-09T05:24:40.631Z,1.50
2023-12-09T05:29:44.814Z,1.57
2023-12-09T05:34:47.693Z,1.73
2023-12-09T05:39:50.352Z,1.67
2023-12-09T05:44:53.335Z,1.86
2023-12-09T05:49:56.269Z,1.85
2023-12-09T05:54:59.086Z,1.92
2023-12-09T06:00:01.974Z,1.93
2023-12-09T06:05:07.833Z,1.73
2023-12-09T06:10:11.446Z,1.66
2023-12-09T06:15:17.763Z,1.90
2023-12-09T06:20:20.739Z,1.89
2023-12-09T06:25:23.648Z,1.85
2023-12-09T06:30:26.726Z,1.84
2023-12-09T06:35:29.616Z,1.85
2023-12-09T06:40:38.280Z,1.94
2023-12-09T06:45:41.337Z,2.03
2023-12-09T06:50:44.922Z,1.96
2023-12-09T06:55:47.868Z,1.93
2023-12-09T07:00:50.864Z,2.04
2023-12-09T07:05:53.929Z,1.95
2023-12-09T07:11:01.014Z,1.93
2023-12-09T07:16:04.720Z,2.06
2023-12-09T07:21:08.026Z,2.00
2023-12-09T07:26:14.548Z,1.98
2023-12-09T07:31:18.382Z,2.08
2023-12-09T07:36:21.538Z,1.97
2023-12-09T07:41:24.729Z,2.00
2023-12-09T07:46:27.588Z,2.01
2023-12-09T07:51:30.758Z,2.00
2023-12-09T07:56:33.538Z,2.04
2023-12-09T08:01:36.970Z,1.96
2023-12-09T08:06:40.321Z,2.08
2023-12-09T08:11:43.376Z,2.02
2023-12-09T08:16:46.938Z,1.95
2023-12-09T08:21:49.769Z,2.18
2023-12-09T08:26:53.624Z,2.07
2023-12-09T08:31:58.560Z,2.12
2023-12-09T08:37:01.085Z,2.16
2023-12-09T08:42:04.007Z,2.08
2023-12-09T08:47:06.996Z,2.17
2023-12-09T08:52:09.971Z,2.19
2023-12-09T08:57:12.893Z,2.02
2023-12-09T09:02:15.949Z,2.16
2023-12-09T09:07:19.289Z,2.10
2023-12-09T09:12:22.493Z,2.19
2023-12-09T09:17:26.515Z,2.19
2023-12-09T09:22:30.894Z,2.31
2023-12-09T09:27:33.945Z,2.35
2023-12-09T09:32:37.440Z,2.36
2023-12-09T09:37:40.307Z,2.33
2023-12-09T09:42:51.824Z,2.26
2023-12-09T09:48:06.088Z,2.25
2023-12-09T09:53:44.908Z,2.27
2023-12-09T09:58:51.621Z,2.34
2023-12-09T10:03:58.479Z,2.35
2023-12-09T10:09:03.149Z,2.30
2023-12-09T10:14:31.431Z,2.31
2023-12-09T10:19:44.214Z,2.35
2023-12-09T10:24:53.033Z,2.27
2023-12-09T10:30:08.528Z,2.45
2023-12-09T10:35:12.622Z,2.32
2023-12-09T10:40:26.987Z,2.56
2023-12-09T10:45:33.541Z,2.49
2023-12-09T10:50:45.335Z,2.43
2023-12-09T10:56:07.524Z,2.41
2023-12-09T11:01:13.479Z,2.52
2023-12-09T11:06:19.038Z,2.55
2023-12-09T11:11:21.947Z,2.43
2023-12-09T11:16:24.740Z,2.51
2023-12-09T11:21:33.226Z,2.62
2023-12-09T11:26:38.179Z,2.61
2023-12-09T11:31:50.200Z,2.72
2023-12-09T11:36:55.329Z,2.67
2023-12-09T11:42:00.810Z,2.52
2023-12-09T11:47:06.200Z,2.65
2023-12-09T11:52:09.677Z,2.65
2023-12-09T11:57:12.856Z,2.77
2023-12-09T12:02:16.958Z,2.63
2023-12-09T12:07:19.908Z,2.74
2023-12-09T12:12:23.002Z,2.80
2023-12-09T12:17:26.372Z,2.81
2023-12-09T12:22:29.444Z,2.81
2023-12-09T12:27:36.982Z,2.66
2023-12-09T12:32:39.954Z,2.69
2023-12-09T12:37:42.877Z,2.70
2023-12-09T12:42:45.778Z,2.67
2023-12-09T12:47:49.567Z,2.58
2023-12-09T12:52:52.538Z,2.82
2023-12-09T12:57:56.990Z,2.78
2023-12-09T13:03:00.000Z,2.67
2023-12-09T13:08:02.767Z,2.65
2023-12-09T13:13:07.159Z,2.75
2023-12-09T13:18:10.118Z,2.71
2023-12-09T13:23:13.779Z,2.75
2023-12-09T13:28:16.744Z,2.70
2023-12-09T13:33:19.535Z,2.66
2023-12-09T13:38:22.290Z,2.66
2023-12-09T13:43:25.062Z,2.54
2023-12-09T13:48:27.882Z,2.61
2023-12-09T13:53:30.981Z,2.57
2023-12-09T13:58:34.054Z,2.58
2023-12-09T14:03:37.276Z,2.63
2023-12-09T14:08:40.031Z,2.59
2023-12-09T14:13:42.949Z,2.55
2023-12-09T14:18:45.795Z,2.48
2023-12-09T14:23:48.613Z,2.48
2023-12-09T14:28:51.427Z,2.50
2023-12-09T14:34:00.980Z,2.42
2023-12-09T14:39:11.144Z,2.49
2023-12-09T14:44:29.862Z,2.43
2023-12-09T14:49:38.500Z,2.43
2023-12-09T14:54:50.576Z,2.48
2023-12-09T14:59:57.472Z,2.55
2023-12-09T15:05:06.079Z,2.44
2023-12-09T15:10:28.230Z,2.45
2023-12-09T15:15:32.128Z,2.36
2023-12-09T15:20:35.500Z,2.41
2023-12-09T15:25:39.476Z,2.49
2023-12-09T15:30:42.287Z,2.45
2023-12-09T15:35:45.028Z,2.57
2023-12-09T15:40:48.292Z,2.48
2023-12-09T15:45:52.168Z,2.37
2023-12-09T15:50:55.934Z,2.41
2023-12-09T15:55:58.846Z,2.32
2023-12-09T16:01:03.795Z,2.14
2023-12-09T16:06:07.791Z,2.21
2023-12-09T16:11:10.563Z,2.30
2023-12-09T16:16:14.913Z,2.24
2023-12-09T16:21:17.791Z,2.21
2023-12-09T16:26:21.913Z,2.29
2023-12-09T16:31:24.789Z,2.29
2023-12-09T16:36:28.454Z,2.46
2023-12-09T16:41:31.558Z,2.38
2023-12-09T16:46:35.683Z,2.27
2023-12-09T16:51:38.824Z,2.35
2023-12-09T16:56:41.933Z,2.35
2023-12-09T17:01:48.285Z,2.22
2023-12-09T17:07:06.442Z,2.35
2023-12-09T17:12:13.741Z,2.39
2023-12-09T17:17:16.680Z,2.14
2023-12-09T17:22:19.435Z,2.13
2023-12-09T17:27:22.294Z,2.10
2023-12-09T17:32:25.257Z,1.97
2023-12-09T17:37:28.406Z,1.96
2023-12-09T17:42:31.489Z,1.92
2023-12-09T17:47:34.940Z,1.81
2023-12-09T17:52:39.184Z,1.87
2023-12-09T17:57:42.476Z,1.81
2023-12-09T18:02:45.979Z,1.91
2023-12-09T18:07:49.114Z,1.73
2023-12-09T18:12:52.183Z,1.71
2023-12-09T18:17:55.274Z,1.50
2023-12-09T18:22:59.897Z,1.46
2023-12-09T18:28:04.130Z,1.50
2023-12-09T18:33:07.338Z,1.46
2023-12-09T18:38:14.790Z,1.30
2023-12-09T18:43:17.999Z,1.29
2023-12-09T18:48:23.339Z,1.30
2023-12-09T18:53:26.253Z,1.14
2023-12-09T18:58:29.796Z,1.09
2023-12-09T19:03:32.907Z,0.76
2023-12-09T19:08:36.702Z,0.80
2023-12-09T19:13:46.088Z,0.61
2023-12-09T19:18:49.567Z,0.61
2023-12-09T19:23:58.054Z,0.32
2023-12-09T19:29:05.654Z,0.46
2023-12-09T19:34:08.888Z,0.37
2023-12-09T19:39:12.978Z,0.53
2023-12-09T19:44:16.517Z,0.33
2023-12-09T19:49:20.685Z,0.32
2023-12-09T19:54:27.639Z,0.32
2023-12-09T19:59:32.677Z,0.30
2023-12-09T20:04:35.640Z,0.36
2023-12-09T20:09:38.752Z,0.23
2023-12-09T20:14:42.205Z,-0.02
2023-12-09T20:19:45.431Z,-0.05
2023-12-09T20:24:49.787Z,-0.21
2023-12-09T20:29:56.816Z,-0.44
2023-12-09T20:35:04.359Z,-0.46
2023-12-09T20:40:10.048Z,-0.28
2023-12-09T20:45:14.817Z,-0.45
2023-12-09T20:50:18.415Z,-0.53
2023-12-09T20:55:21.586Z,-0.68
2023-12-09T21:00:25.142Z,-0.75
2023-12-09T21:05:29.116Z,-0.47
2023-12-09T21:10:32.269Z,-0.40
2023-12-09T21:15:35.052Z,-0.69
2023-12-09T21:20:39.887Z,-0.64
2023-12-09T21:25:43.191Z,-0.43
2023-12-09T21:30:48.988Z,-0.42
2023-12-09T21:35:52.547Z,-0.29
2023-12-09T21:40:55.422Z,-0.41
2023-12-09T21:45:58.820Z,-0.35
2023-12-09T21:51:03.363Z,-0.38
2023-12-09T21:56:07.766Z,-0.57
2023-12-09T22:01:11.573Z,-0.49
2023-12-09T22:06:15.070Z,-0.56
2023-12-09T22:11:18.670Z,-0.51
2023-12-09T22:16:21.879Z,-0.41
2023-12-09T22:21:24.710Z,-0.45
2023-12-09T22:26:27.497Z,-0.48
2023-12-09T22:31:30.744Z,-0.51
2023-12-09T22:36:34.139Z,-0.28
2023-12-09T22:41:37.054Z,-0.38
2023-12-09T22:46:39.900Z,-0.39
2023-12-09T22:51:43.162Z,-0.62
2023-12-09T22:56:46.380Z,-0.82
2023-12-09T23:01:49.230Z,-0.61
2023-12-09T23:06:51.908Z,-0.50
2023-12-09T23:11:54.652Z,-0.46
2023-12-09T23:16:57.494Z,-0.55
2023-12-09T23:22:00.339Z,-0.49
2023-12-09T23:27:04.187Z,-0.37
2023-12-09T23:32:09.035Z,-0.30
2023-12-09T23:37:12.043Z,-0.16
2023-12-09T23:42:14.817Z,-0.39
2023-12-09T23:47:17.582Z,-0.17
2023-12-09T23:52:20.338Z,-0.21
2023-12-09T23:57:23.459Z,-0.15
